sensor_id;sensor_type;location;lat;lon;timestamp;P1;durP1;ratioP1;P2;durP2;ratioP2
50555;SDS011;36508;52.512;13.450;2022-08-04T00:01:45;17.33;;;16.00;;
50555;SDS011;36508;52.512;13.450;2022-08-04T00:05:04;16.97;;;15.77;;
50555;SDS011;36508;52.512;13.450;2022-08-04T00:09:51;16.57;;;14.70;;
50555;SDS011;36508;52.512;13.450;2022-08-04T00:12:24;15.50;;;14.30;;
50555;SDS011;36508;52.512;13.450;2022-08-04T00:14:55;14.33;;;13.10;;
50555;SDS011;36508;52.512;13.450;2022-08-04T00:17:25;14.80;;;13.57;;
50555;SDS011;36508;52.512;13.450;2022-08-04T00:19:57;15.50;;;14.27;;
50555;SDS011;36508;52.512;13.450;2022-08-04T00:22:28;16.67;;;15.53;;
50555;SDS011;36508;52.512;13.450;2022-08-04T00:24:55;16.27;;;15.07;;
50555;SDS011;36508;52.512;13.450;2022-08-04T00:27:22;14.83;;;13.53;;
50555;SDS011;36508;52.512;13.450;2022-08-04T00:29:54;15.63;;;14.37;;
50555;SDS011;36508;52.512;13.450;2022-08-04T00:32:20;15.00;;;13.80;;
50555;SDS011;36508;52.512;13.450;2022-08-04T00:34:46;12.60;;;11.70;;
50555;SDS011;36508;52.512;13.450;2022-08-04T00:37:12;14.30;;;13.10;;
50555;SDS011;36508;52.512;13.450;2022-08-04T00:39:39;14.40;;;13.23;;
50555;SDS011;36508;52.512;13.450;2022-08-04T00:42:13;13.80;;;12.37;;
50555;SDS011;36508;52.512;13.450;2022-08-04T00:50:24;15.53;;;12.97;;
50555;SDS011;36508;52.512;13.450;2022-08-04T00:53:05;12.53;;;11.53;;
50555;SDS011;36508;52.512;13.450;2022-08-04T00:55:44;14.23;;;12.77;;
50555;SDS011;36508;52.512;13.450;2022-08-04T01:01:59;17.87;;;16.43;;
50555;SDS011;36508;52.512;13.450;2022-08-04T01:04:38;15.57;;;14.20;;
50555;SDS011;36508;52.512;13.450;2022-08-04T01:12:28;12.90;;;11.80;;
50555;SDS011;36508;52.512;13.450;2022-08-04T01:18:06;12.10;;;11.00;;
50555;SDS011;36508;52.512;13.450;2022-08-04T01:23:44;10.53;;;9.83;;
50555;SDS011;36508;52.512;13.450;2022-08-04T01:34:35;11.40;;;10.40;;
50555;SDS011;36508;52.512;13.450;2022-08-04T01:39:56;11.10;;;10.20;;
50555;SDS011;36508;52.512;13.450;2022-08-04T01:42:26;12.03;;;11.13;;
50555;SDS011;36508;52.512;13.450;2022-08-04T01:44:55;11.10;;;10.10;;
50555;SDS011;36508;52.512;13.450;2022-08-04T01:47:28;11.10;;;10.30;;
50555;SDS011;36508;52.512;13.450;2022-08-04T01:49:57;10.27;;;9.17;;
50555;SDS011;36508;52.512;13.450;2022-08-04T01:52:29;9.50;;;8.80;;
50555;SDS011;36508;52.512;13.450;2022-08-04T01:54:58;10.07;;;9.47;;
50555;SDS011;36508;52.512;13.450;2022-08-04T01:57:25;10.20;;;9.50;;
50555;SDS011;36508;52.512;13.450;2022-08-04T01:59:52;11.10;;;10.10;;
50555;SDS011;36508;52.512;13.450;2022-08-04T02:02:22;11.83;;;10.97;;
50555;SDS011;36508;52.512;13.450;2022-08-04T02:04:49;11.27;;;8.77;;
50555;SDS011;36508;52.512;13.450;2022-08-04T02:15:48;8.43;;;7.73;;
50555;SDS011;36508;52.512;13.450;2022-08-04T02:18:23;9.13;;;8.50;;
50555;SDS011;36508;52.512;13.450;2022-08-04T02:20:59;8.87;;;8.20;;
50555;SDS011;36508;52.512;13.450;2022-08-04T02:23:36;8.30;;;7.73;;
50555;SDS011;36508;52.512;13.450;2022-08-04T02:26:19;7.90;;;7.40;;
50555;SDS011;36508;52.512;13.450;2022-08-04T02:28:46;8.30;;;7.70;;
50555;SDS011;36508;52.512;13.450;2022-08-04T02:31:36;7.33;;;6.77;;
50555;SDS011;36508;52.512;13.450;2022-08-04T02:34:08;8.80;;;8.03;;
50555;SDS011;36508;52.512;13.450;2022-08-04T02:36:53;8.00;;;7.40;;
50555;SDS011;36508;52.512;13.450;2022-08-04T02:39:20;8.00;;;7.40;;
50555;SDS011;36508;52.512;13.450;2022-08-04T02:41:47;8.23;;;7.73;;
50555;SDS011;36508;52.512;13.450;2022-08-04T02:44:19;7.70;;;7.10;;
50555;SDS011;36508;52.512;13.450;2022-08-04T02:46:46;8.27;;;7.77;;
50555;SDS011;36508;52.512;13.450;2022-08-04T02:49:14;6.87;;;6.37;;
50555;SDS011;36508;52.512;13.450;2022-08-04T02:51:44;8.13;;;7.53;;
50555;SDS011;36508;52.512;13.450;2022-08-04T02:54:14;7.63;;;7.03;;
50555;SDS011;36508;52.512;13.450;2022-08-04T02:56:41;7.60;;;7.00;;
50555;SDS011;36508;52.512;13.450;2022-08-04T02:59:10;7.03;;;6.63;;
50555;SDS011;36508;52.512;13.450;2022-08-04T03:01:38;7.37;;;6.97;;
50555;SDS011;36508;52.512;13.450;2022-08-04T03:04:09;6.77;;;6.40;;
50555;SDS011;36508;52.512;13.450;2022-08-04T03:06:51;6.90;;;6.50;;
50555;SDS011;36508;52.512;13.450;2022-08-04T03:09:56;7.00;;;6.50;;
50555;SDS011;36508;52.512;13.450;2022-08-04T03:55:17;7.20;;;6.60;;
50555;SDS011;36508;52.512;13.450;2022-08-04T04:17:45;8.63;;;7.87;;
50555;SDS011;36508;52.512;13.450;2022-08-04T04:20:36;7.73;;;7.33;;
50555;SDS011;36508;52.512;13.450;2022-08-04T04:23:30;9.00;;;8.40;;
50555;SDS011;36508;52.512;13.450;2022-08-04T04:35:02;7.93;;;7.43;;
50555;SDS011;36508;52.512;13.450;2022-08-04T04:46:10;10.23;;;9.23;;
50555;SDS011;36508;52.512;13.450;2022-08-04T04:54:25;8.77;;;8.07;;
50555;SDS011;36508;52.512;13.450;2022-08-04T04:57:04;9.77;;;9.03;;
50555;SDS011;36508;52.512;13.450;2022-08-04T04:59:49;12.87;;;8.80;;
50555;SDS011;36508;52.512;13.450;2022-08-04T05:02:32;9.63;;;8.90;;
50555;SDS011;36508;52.512;13.450;2022-08-04T05:13:50;9.57;;;8.93;;
50555;SDS011;36508;52.512;13.450;2022-08-04T05:16:32;10.33;;;9.33;;
50555;SDS011;36508;52.512;13.450;2022-08-04T05:21:49;10.37;;;9.30;;
50555;SDS011;36508;52.512;13.450;2022-08-04T05:24:21;10.73;;;10.13;;
50555;SDS011;36508;52.512;13.450;2022-08-04T05:26:51;12.50;;;11.53;;
50555;SDS011;36508;52.512;13.450;2022-08-04T05:29:30;10.73;;;10.00;;
50555;SDS011;36508;52.512;13.450;2022-08-04T05:32:00;14.53;;;9.33;;
50555;SDS011;36508;52.512;13.450;2022-08-04T05:34:32;10.73;;;9.93;;
50555;SDS011;36508;52.512;13.450;2022-08-04T05:37:06;10.33;;;9.53;;
50555;SDS011;36508;52.512;13.450;2022-08-04T05:39:36;11.07;;;9.90;;
50555;SDS011;36508;52.512;13.450;2022-08-04T05:42:08;12.57;;;11.47;;
50555;SDS011;36508;52.512;13.450;2022-08-04T05:44:37;11.40;;;10.33;;
50555;SDS011;36508;52.512;13.450;2022-08-04T05:47:05;10.77;;;9.80;;
50555;SDS011;36508;52.512;13.450;2022-08-04T05:49:32;11.83;;;10.87;;
50555;SDS011;36508;52.512;13.450;2022-08-04T05:52:00;12.40;;;11.37;;
50555;SDS011;36508;52.512;13.450;2022-08-04T05:54:29;10.80;;;9.90;;
50555;SDS011;36508;52.512;13.450;2022-08-04T05:56:56;12.53;;;11.27;;
50555;SDS011;36508;52.512;13.450;2022-08-04T05:59:23;11.30;;;10.50;;
50555;SDS011;36508;52.512;13.450;2022-08-04T06:01:52;14.07;;;10.90;;
50555;SDS011;36508;52.512;13.450;2022-08-04T06:04:22;11.70;;;10.70;;
50555;SDS011;36508;52.512;13.450;2022-08-04T06:06:52;12.50;;;11.67;;
50555;SDS011;36508;52.512;13.450;2022-08-04T06:09:18;14.00;;;11.10;;
50555;SDS011;36508;52.512;13.450;2022-08-04T06:11:44;12.00;;;9.97;;
50555;SDS011;36508;52.512;13.450;2022-08-04T06:14:11;12.27;;;11.03;;
50555;SDS011;36508;52.512;13.450;2022-08-04T06:16:40;10.60;;;9.80;;
50555;SDS011;36508;52.512;13.450;2022-08-04T06:19:08;11.77;;;10.47;;
50555;SDS011;36508;52.512;13.450;2022-08-04T06:21:41;12.43;;;11.43;;
50555;SDS011;36508;52.512;13.450;2022-08-04T06:24:14;12.17;;;10.83;;
50555;SDS011;36508;52.512;13.450;2022-08-04T06:26:42;16.43;;;12.03;;
50555;SDS011;36508;52.512;13.450;2022-08-04T06:29:10;15.80;;;9.60;;
50555;SDS011;36508;52.512;13.450;2022-08-04T06:31:45;13.30;;;10.80;;
50555;SDS011;36508;52.512;13.450;2022-08-04T06:34:21;10.73;;;10.00;;
50555;SDS011;36508;52.512;13.450;2022-08-04T06:36:49;11.10;;;9.97;;
50555;SDS011;36508;52.512;13.450;2022-08-04T06:39:16;13.47;;;12.57;;
50555;SDS011;36508;52.512;13.450;2022-08-04T06:41:43;12.93;;;12.07;;
50555;SDS011;36508;52.512;13.450;2022-08-04T06:44:09;12.93;;;11.43;;
50555;SDS011;36508;52.512;13.450;2022-08-04T06:46:37;14.50;;;10.27;;
50555;SDS011;36508;52.512;13.450;2022-08-04T06:49:05;11.40;;;10.30;;
50555;SDS011;36508;52.512;13.450;2022-08-04T06:51:32;12.67;;;9.70;;
50555;SDS011;36508;52.512;13.450;2022-08-04T06:54:00;13.03;;;11.73;;
50555;SDS011;36508;52.512;13.450;2022-08-04T06:56:26;13.70;;;12.53;;
50555;SDS011;36508;52.512;13.450;2022-08-04T06:58:55;11.10;;;9.97;;
50555;SDS011;36508;52.512;13.450;2022-08-04T07:01:21;12.00;;;10.77;;
50555;SDS011;36508;52.512;13.450;2022-08-04T07:03:50;10.07;;;9.20;;
50555;SDS011;36508;52.512;13.450;2022-08-04T07:06:16;10.03;;;9.17;;
50555;SDS011;36508;52.512;13.450;2022-08-04T07:08:45;10.43;;;9.37;;
50555;SDS011;36508;52.512;13.450;2022-08-04T07:11:11;11.67;;;10.10;;
50555;SDS011;36508;52.512;13.450;2022-08-04T07:13:38;11.47;;;10.50;;
50555;SDS011;36508;52.512;13.450;2022-08-04T07:16:05;10.37;;;9.43;;
50555;SDS011;36508;52.512;13.450;2022-08-04T07:18:31;10.10;;;8.97;;
50555;SDS011;36508;52.512;13.450;2022-08-04T07:20:57;10.37;;;9.30;;
50555;SDS011;36508;52.512;13.450;2022-08-04T07:23:23;8.10;;;7.50;;
50555;SDS011;36508;52.512;13.450;2022-08-04T07:25:50;11.33;;;10.20;;
50555;SDS011;36508;52.512;13.450;2022-08-04T07:28:21;9.43;;;8.63;;
50555;SDS011;36508;52.512;13.450;2022-08-04T07:30:56;10.60;;;9.70;;
50555;SDS011;36508;52.512;13.450;2022-08-04T07:33:23;9.73;;;9.10;;
50555;SDS011;36508;52.512;13.450;2022-08-04T07:35:52;9.03;;;8.23;;
50555;SDS011;36508;52.512;13.450;2022-08-04T07:38:20;11.50;;;10.33;;
50555;SDS011;36508;52.512;13.450;2022-08-04T07:40:45;9.20;;;8.50;;
50555;SDS011;36508;52.512;13.450;2022-08-04T07:43:13;11.47;;;9.93;;
50555;SDS011;36508;52.512;13.450;2022-08-04T07:45:40;8.73;;;8.07;;
50555;SDS011;36508;52.512;13.450;2022-08-04T07:48:06;11.07;;;9.07;;
50555;SDS011;36508;52.512;13.450;2022-08-04T07:50:34;10.13;;;9.20;;
50555;SDS011;36508;52.512;13.450;2022-08-04T07:53:02;16.40;;;8.80;;
50555;SDS011;36508;52.512;13.450;2022-08-04T07:55:28;8.17;;;7.60;;
50555;SDS011;36508;52.512;13.450;2022-08-04T07:57:55;9.20;;;8.47;;
50555;SDS011;36508;52.512;13.450;2022-08-04T08:00:20;10.60;;;10.00;;
50555;SDS011;36508;52.512;13.450;2022-08-04T08:02:49;10.30;;;9.30;;
50555;SDS011;36508;52.512;13.450;2022-08-04T08:05:19;9.20;;;8.40;;
50555;SDS011;36508;52.512;13.450;2022-08-04T08:07:46;8.47;;;7.90;;
50555;SDS011;36508;52.512;13.450;2022-08-04T08:10:13;8.60;;;7.80;;
50555;SDS011;36508;52.512;13.450;2022-08-04T08:12:40;9.47;;;7.80;;
50555;SDS011;36508;52.512;13.450;2022-08-04T08:15:07;8.80;;;6.80;;
50555;SDS011;36508;52.512;13.450;2022-08-04T08:17:34;7.87;;;7.17;;
50555;SDS011;36508;52.512;13.450;2022-08-04T08:20:00;11.50;;;7.53;;
50555;SDS011;36508;52.512;13.450;2022-08-04T08:22:27;11.43;;;8.33;;
50555;SDS011;36508;52.512;13.450;2022-08-04T08:24:54;6.77;;;6.13;;
50555;SDS011;36508;52.512;13.450;2022-08-04T08:27:20;7.80;;;7.20;;
50555;SDS011;36508;52.512;13.450;2022-08-04T08:29:47;7.87;;;7.27;;
50555;SDS011;36508;52.512;13.450;2022-08-04T08:32:14;6.97;;;6.67;;
50555;SDS011;36508;52.512;13.450;2022-08-04T08:34:40;7.60;;;7.23;;
50555;SDS011;36508;52.512;13.450;2022-08-04T08:40:29;6.00;;;5.60;;
50555;SDS011;36508;52.512;13.450;2022-08-04T08:49:58;7.80;;;7.00;;
50555;SDS011;36508;52.512;13.450;2022-08-04T08:52:00;8.70;;;8.10;;
50555;SDS011;36508;52.512;13.450;2022-08-04T09:06:04;6.00;;;5.60;;
50555;SDS011;36508;52.512;13.450;2022-08-04T09:09:03;11.47;;;7.43;;
50555;SDS011;36508;52.512;13.450;2022-08-04T09:14:53;11.40;;;6.40;;
50555;SDS011;36508;52.512;13.450;2022-08-04T09:28:49;6.20;;;5.90;;
50555;SDS011;36508;52.512;13.450;2022-08-04T09:31:32;6.80;;;6.40;;
50555;SDS011;36508;52.512;13.450;2022-08-04T09:34:09;7.43;;;6.83;;
50555;SDS011;36508;52.512;13.450;2022-08-04T09:36:52;5.10;;;4.90;;
50555;SDS011;36508;52.512;13.450;2022-08-04T09:39:39;5.90;;;5.60;;
50555;SDS011;36508;52.512;13.450;2022-08-04T09:42:34;6.43;;;6.03;;
50555;SDS011;36508;52.512;13.450;2022-08-04T09:45:11;10.73;;;6.83;;
50555;SDS011;36508;52.512;13.450;2022-08-04T09:48:12;6.30;;;5.67;;
50555;SDS011;36508;52.512;13.450;2022-08-04T09:50:50;8.90;;;6.43;;
50555;SDS011;36508;52.512;13.450;2022-08-04T10:01:17;5.87;;;5.47;;
50555;SDS011;36508;52.512;13.450;2022-08-04T10:03:48;6.03;;;5.50;;
50555;SDS011;36508;52.512;13.450;2022-08-04T10:14:12;7.03;;;5.77;;
50555;SDS011;36508;52.512;13.450;2022-08-04T10:17:04;5.90;;;5.43;;
50555;SDS011;36508;52.512;13.450;2022-08-04T10:22:52;4.80;;;4.60;;
50555;SDS011;36508;52.512;13.450;2022-08-04T10:28:52;5.40;;;5.10;;
50555;SDS011;36508;52.512;13.450;2022-08-04T10:31:23;5.87;;;5.17;;
50555;SDS011;36508;52.512;13.450;2022-08-04T10:33:56;8.00;;;4.47;;
50555;SDS011;36508;52.512;13.450;2022-08-04T10:36:27;4.13;;;3.93;;
50555;SDS011;36508;52.512;13.450;2022-08-04T10:39:11;4.70;;;4.40;;
50555;SDS011;36508;52.512;13.450;2022-08-04T10:44:21;4.60;;;4.40;;
50555;SDS011;36508;52.512;13.450;2022-08-04T10:46:52;4.80;;;4.50;;
50555;SDS011;36508;52.512;13.450;2022-08-04T10:52:06;4.40;;;4.20;;
50555;SDS011;36508;52.512;13.450;2022-08-04T10:54:40;5.03;;;4.83;;
50555;SDS011;36508;52.512;13.450;2022-08-04T10:57:29;6.60;;;6.20;;
50555;SDS011;36508;52.512;13.450;2022-08-04T11:00:04;5.73;;;5.43;;
50555;SDS011;36508;52.512;13.450;2022-08-04T11:05:44;5.10;;;4.80;;
50555;SDS011;36508;52.512;13.450;2022-08-04T11:08:14;5.10;;;4.90;;
50555;SDS011;36508;52.512;13.450;2022-08-04T11:10:46;4.50;;;4.07;;
50555;SDS011;36508;52.512;13.450;2022-08-04T11:13:43;4.50;;;4.30;;
50555;SDS011;36508;52.512;13.450;2022-08-04T11:16:21;5.17;;;4.87;;
50555;SDS011;36508;52.512;13.450;2022-08-04T11:21:46;4.93;;;4.53;;
50555;SDS011;36508;52.512;13.450;2022-08-04T11:24:24;8.50;;;6.80;;
50555;SDS011;36508;52.512;13.450;2022-08-04T11:27:08;5.80;;;5.30;;
50555;SDS011;36508;52.512;13.450;2022-08-04T11:32:14;5.33;;;5.13;;
50555;SDS011;36508;52.512;13.450;2022-08-04T11:34:46;4.87;;;4.57;;
50555;SDS011;36508;52.512;13.450;2022-08-04T11:37:16;6.00;;;4.63;;
50555;SDS011;36508;52.512;13.450;2022-08-04T11:39:51;5.20;;;4.90;;
50555;SDS011;36508;52.512;13.450;2022-08-04T11:42:27;4.83;;;4.00;;
50555;SDS011;36508;52.512;13.450;2022-08-04T11:45:02;5.03;;;4.83;;
50555;SDS011;36508;52.512;13.450;2022-08-04T11:47:40;5.97;;;5.57;;
50555;SDS011;36508;52.512;13.450;2022-08-04T11:50:36;5.17;;;4.87;;
50555;SDS011;36508;52.512;13.450;2022-08-04T11:53:13;7.70;;;5.33;;
50555;SDS011;36508;52.512;13.450;2022-08-04T11:55:44;4.47;;;4.17;;
50555;SDS011;36508;52.512;13.450;2022-08-04T11:58:14;6.20;;;5.80;;
50555;SDS011;36508;52.512;13.450;2022-08-04T12:00:41;7.77;;;7.20;;
50555;SDS011;36508;52.512;13.450;2022-08-04T12:03:36;5.73;;;4.83;;
50555;SDS011;36508;52.512;13.450;2022-08-04T12:06:24;7.30;;;6.90;;
50555;SDS011;36508;52.512;13.450;2022-08-04T12:09:21;7.27;;;4.63;;
50555;SDS011;36508;52.512;13.450;2022-08-04T12:15:11;6.60;;;4.97;;
50555;SDS011;36508;52.512;13.450;2022-08-04T12:17:58;4.70;;;4.30;;
50555;SDS011;36508;52.512;13.450;2022-08-04T12:20:33;5.03;;;4.20;;
50555;SDS011;36508;52.512;13.450;2022-08-04T12:23:13;4.23;;;3.93;;
50555;SDS011;36508;52.512;13.450;2022-08-04T12:25:49;6.23;;;5.83;;
50555;SDS011;36508;52.512;13.450;2022-08-04T12:28:32;4.70;;;4.40;;
50555;SDS011;36508;52.512;13.450;2022-08-04T12:31:02;5.13;;;4.73;;
50555;SDS011;36508;52.512;13.450;2022-08-04T12:33:57;9.87;;;5.97;;
50555;SDS011;36508;52.512;13.450;2022-08-04T12:39:16;6.53;;;6.23;;
50555;SDS011;36508;52.512;13.450;2022-08-04T12:41:51;5.00;;;4.70;;
50555;SDS011;36508;52.512;13.450;2022-08-04T12:44:39;4.60;;;4.40;;
50555;SDS011;36508;52.512;13.450;2022-08-04T12:47:07;7.17;;;4.50;;
50555;SDS011;36508;52.512;13.450;2022-08-04T12:49:36;4.60;;;4.30;;
50555;SDS011;36508;52.512;13.450;2022-08-04T12:52:06;4.40;;;4.03;;
50555;SDS011;36508;52.512;13.450;2022-08-04T12:54:34;3.97;;;3.73;;
50555;SDS011;36508;52.512;13.450;2022-08-04T12:57:03;3.80;;;3.70;;
50555;SDS011;36508;52.512;13.450;2022-08-04T12:59:38;4.47;;;4.27;;
50555;SDS011;36508;52.512;13.450;2022-08-04T13:02:05;4.20;;;3.90;;
50555;SDS011;36508;52.512;13.450;2022-08-04T13:04:48;4.73;;;4.43;;
50555;SDS011;36508;52.512;13.450;2022-08-04T13:07:17;3.87;;;3.63;;
50555;SDS011;36508;52.512;13.450;2022-08-04T13:09:45;4.80;;;4.27;;
50555;SDS011;36508;52.512;13.450;2022-08-04T13:12:12;4.13;;;3.93;;
50555;SDS011;36508;52.512;13.450;2022-08-04T13:14:41;4.03;;;3.73;;
50555;SDS011;36508;52.512;13.450;2022-08-04T13:17:09;4.10;;;3.40;;
50555;SDS011;36508;52.512;13.450;2022-08-04T13:19:35;4.00;;;3.80;;
50555;SDS011;36508;52.512;13.450;2022-08-04T13:22:02;5.00;;;3.90;;
50555;SDS011;36508;52.512;13.450;2022-08-04T13:24:29;3.93;;;3.73;;
50555;SDS011;36508;52.512;13.450;2022-08-04T13:26:59;4.03;;;3.90;;
50555;SDS011;36508;52.512;13.450;2022-08-04T13:29:45;3.80;;;3.60;;
50555;SDS011;36508;52.512;13.450;2022-08-04T13:32:15;4.47;;;3.70;;
50555;SDS011;36508;52.512;13.450;2022-08-04T13:34:42;5.97;;;3.33;;
50555;SDS011;36508;52.512;13.450;2022-08-04T13:37:10;3.80;;;3.50;;
50555;SDS011;36508;52.512;13.450;2022-08-04T13:39:37;3.43;;;3.23;;
50555;SDS011;36508;52.512;13.450;2022-08-04T13:42:10;4.20;;;3.80;;
50555;SDS011;36508;52.512;13.450;2022-08-04T13:44:37;9.90;;;3.47;;
50555;SDS011;36508;52.512;13.450;2022-08-04T13:47:11;4.53;;;3.70;;
50555;SDS011;36508;52.512;13.450;2022-08-04T13:50:03;4.17;;;2.90;;
50555;SDS011;36508;52.512;13.450;2022-08-04T13:53:01;3.83;;;3.63;;
50555;SDS011;36508;52.512;13.450;2022-08-04T13:55:32;4.10;;;3.77;;
50555;SDS011;36508;52.512;13.450;2022-08-04T14:00:46;6.47;;;6.07;;
50555;SDS011;36508;52.512;13.450;2022-08-04T14:03:35;9.77;;;3.50;;
50555;SDS011;36508;52.512;13.450;2022-08-04T14:06:22;4.03;;;3.83;;
50555;SDS011;36508;52.512;13.450;2022-08-04T14:11:18;5.27;;;4.20;;
50555;SDS011;36508;52.512;13.450;2022-08-04T14:13:46;5.57;;;3.77;;
50555;SDS011;36508;52.512;13.450;2022-08-04T14:16:13;3.73;;;3.50;;
50555;SDS011;36508;52.512;13.450;2022-08-04T14:18:44;2.90;;;2.70;;
50555;SDS011;36508;52.512;13.450;2022-08-04T14:21:11;3.10;;;3.00;;
50555;SDS011;36508;52.512;13.450;2022-08-04T14:26:25;3.90;;;2.93;;
50555;SDS011;36508;52.512;13.450;2022-08-04T14:28:53;3.70;;;3.40;;
50555;SDS011;36508;52.512;13.450;2022-08-04T14:31:22;3.37;;;3.27;;
50555;SDS011;36508;52.512;13.450;2022-08-04T14:33:50;4.30;;;4.10;;
50555;SDS011;36508;52.512;13.450;2022-08-04T14:36:17;3.20;;;3.10;;
50555;SDS011;36508;52.512;13.450;2022-08-04T14:38:48;4.13;;;3.43;;
50555;SDS011;36508;52.512;13.450;2022-08-04T14:41:25;3.03;;;2.83;;
50555;SDS011;36508;52.512;13.450;2022-08-04T14:43:53;3.93;;;3.00;;
50555;SDS011;36508;52.512;13.450;2022-08-04T14:46:24;3.60;;;3.40;;
50555;SDS011;36508;52.512;13.450;2022-08-04T14:49:01;4.80;;;4.37;;
50555;SDS011;36508;52.512;13.450;2022-08-04T14:51:28;5.80;;;5.20;;
50555;SDS011;36508;52.512;13.450;2022-08-04T14:54:03;7.10;;;4.30;;
50555;SDS011;36508;52.512;13.450;2022-08-04T14:56:29;4.03;;;3.80;;
50555;SDS011;36508;52.512;13.450;2022-08-04T14:59:00;3.10;;;3.00;;
50555;SDS011;36508;52.512;13.450;2022-08-04T15:01:35;3.60;;;3.30;;
50555;SDS011;36508;52.512;13.450;2022-08-04T15:04:03;5.23;;;3.10;;
50555;SDS011;36508;52.512;13.450;2022-08-04T15:06:31;3.33;;;3.23;;
50555;SDS011;36508;52.512;13.450;2022-08-04T15:08:59;4.90;;;3.73;;
50555;SDS011;36508;52.512;13.450;2022-08-04T15:11:28;3.00;;;2.77;;
50555;SDS011;36508;52.512;13.450;2022-08-04T15:13:55;2.67;;;2.57;;
50555;SDS011;36508;52.512;13.450;2022-08-04T15:16:23;3.33;;;3.13;;
50555;SDS011;36508;52.512;13.450;2022-08-04T15:18:51;2.87;;;2.77;;
50555;SDS011;36508;52.512;13.450;2022-08-04T15:21:17;3.07;;;2.80;;
50555;SDS011;36508;52.512;13.450;2022-08-04T15:23:46;3.33;;;3.13;;
50555;SDS011;36508;52.512;13.450;2022-08-04T15:26:18;3.73;;;3.43;;
50555;SDS011;36508;52.512;13.450;2022-08-04T15:29:41;5.03;;;2.70;;
50555;SDS011;36508;52.512;13.450;2022-08-04T15:32:01;3.80;;;3.60;;
50555;SDS011;36508;52.512;13.450;2022-08-04T15:34:46;2.60;;;2.50;;
50555;SDS011;36508;52.512;13.450;2022-08-04T15:37:24;3.77;;;3.47;;
50555;SDS011;36508;52.512;13.450;2022-08-04T15:39:58;3.20;;;3.00;;
50555;SDS011;36508;52.512;13.450;2022-08-04T15:42:35;2.93;;;2.73;;
50555;SDS011;36508;52.512;13.450;2022-08-04T15:47:50;4.03;;;3.40;;
50555;SDS011;36508;52.512;13.450;2022-08-04T15:50:29;3.53;;;3.33;;
50555;SDS011;36508;52.512;13.450;2022-08-04T15:55:35;3.03;;;2.87;;
50555;SDS011;36508;52.512;13.450;2022-08-04T15:58:12;3.63;;;3.40;;
50555;SDS011;36508;52.512;13.450;2022-08-04T16:08:56;3.27;;;3.00;;
50555;SDS011;36508;52.512;13.450;2022-08-04T16:19:29;3.60;;;3.30;;
50555;SDS011;36508;52.512;13.450;2022-08-04T16:22:05;2.97;;;2.87;;
50555;SDS011;36508;52.512;13.450;2022-08-04T16:27:05;4.07;;;3.77;;
50555;SDS011;36508;52.512;13.450;2022-08-04T16:29:33;3.93;;;3.40;;
50555;SDS011;36508;52.512;13.450;2022-08-04T16:34:31;3.77;;;3.20;;
50555;SDS011;36508;52.512;13.450;2022-08-04T16:37:02;3.00;;;2.80;;
50555;SDS011;36508;52.512;13.450;2022-08-04T16:39:29;4.97;;;4.67;;
50555;SDS011;36508;52.512;13.450;2022-08-04T16:41:55;2.63;;;2.53;;
50555;SDS011;36508;52.512;13.450;2022-08-04T16:44:28;3.53;;;3.23;;
50555;SDS011;36508;52.512;13.450;2022-08-04T16:47:00;5.50;;;4.53;;
50555;SDS011;36508;52.512;13.450;2022-08-04T16:49:28;4.47;;;3.50;;
50555;SDS011;36508;52.512;13.450;2022-08-04T16:52:00;3.90;;;3.70;;
50555;SDS011;36508;52.512;13.450;2022-08-04T16:54:30;3.10;;;3.00;;
50555;SDS011;36508;52.512;13.450;2022-08-04T16:56:58;4.47;;;4.17;;
50555;SDS011;36508;52.512;13.450;2022-08-04T16:59:24;5.37;;;3.30;;
50555;SDS011;36508;52.512;13.450;2022-08-04T17:01:51;4.20;;;3.90;;
50555;SDS011;36508;52.512;13.450;2022-08-04T17:04:28;3.23;;;3.03;;
50555;SDS011;36508;52.512;13.450;2022-08-04T17:07:04;4.07;;;3.67;;
50555;SDS011;36508;52.512;13.450;2022-08-04T17:09:30;5.60;;;5.33;;
50555;SDS011;36508;52.512;13.450;2022-08-04T17:11:57;3.90;;;3.70;;
50555;SDS011;36508;52.512;13.450;2022-08-04T17:14:27;4.00;;;3.80;;
50555;SDS011;36508;52.512;13.450;2022-08-04T17:16:58;4.60;;;4.30;;
50555;SDS011;36508;52.512;13.450;2022-08-04T17:19:25;5.47;;;4.87;;
50555;SDS011;36508;52.512;13.450;2022-08-04T17:21:51;3.50;;;3.30;;
50555;SDS011;36508;52.512;13.450;2022-08-04T17:24:18;3.37;;;3.20;;
50555;SDS011;36508;52.512;13.450;2022-08-04T17:26:44;4.00;;;3.90;;
50555;SDS011;36508;52.512;13.450;2022-08-04T17:29:11;4.33;;;4.13;;
50555;SDS011;36508;52.512;13.450;2022-08-04T17:31:37;6.90;;;6.50;;
50555;SDS011;36508;52.512;13.450;2022-08-04T17:34:11;10.40;;;4.90;;
50555;SDS011;36508;52.512;13.450;2022-08-04T17:36:40;4.17;;;3.43;;
50555;SDS011;36508;52.512;13.450;2022-08-04T17:39:19;6.80;;;2.83;;
50555;SDS011;36508;52.512;13.450;2022-08-04T17:41:47;4.10;;;3.80;;
50555;SDS011;36508;52.512;13.450;2022-08-04T17:44:19;3.10;;;2.90;;
50555;SDS011;36508;52.512;13.450;2022-08-04T17:46:45;3.07;;;2.90;;
50555;SDS011;36508;52.512;13.450;2022-08-04T17:51:53;6.57;;;6.10;;
50555;SDS011;36508;52.512;13.450;2022-08-04T17:56:56;7.80;;;5.00;;
50555;SDS011;36508;52.512;13.450;2022-08-04T17:59:44;8.00;;;5.10;;
50555;SDS011;36508;52.512;13.450;2022-08-04T18:02:10;4.30;;;4.00;;
50555;SDS011;36508;52.512;13.450;2022-08-04T18:07:16;24.87;;;7.97;;
50555;SDS011;36508;52.512;13.450;2022-08-04T18:12:26;15.90;;;7.60;;
50555;SDS011;36508;52.512;13.450;2022-08-04T18:14:55;30.97;;;8.17;;
50555;SDS011;36508;52.512;13.450;2022-08-04T18:17:35;10.77;;;6.93;;
50555;SDS011;36508;52.512;13.450;2022-08-04T18:20:03;4.33;;;4.13;;
50555;SDS011;36508;52.512;13.450;2022-08-04T18:22:31;33.37;;;14.70;;
50555;SDS011;36508;52.512;13.450;2022-08-04T18:24:57;63.63;;;13.70;;
50555;SDS011;36508;52.512;13.450;2022-08-04T18:27:29;39.90;;;13.90;;
50555;SDS011;36508;52.512;13.450;2022-08-04T18:29:56;26.90;;;14.93;;
50555;SDS011;36508;52.512;13.450;2022-08-04T18:32:23;24.07;;;12.70;;
50555;SDS011;36508;52.512;13.450;2022-08-04T18:34:50;27.37;;;10.77;;
50555;SDS011;36508;52.512;13.450;2022-08-04T18:37:18;27.53;;;12.50;;
50555;SDS011;36508;52.512;13.450;2022-08-04T18:39:44;15.67;;;12.97;;
50555;SDS011;36508;52.512;13.450;2022-08-04T18:42:10;26.13;;;13.90;;
50555;SDS011;36508;52.512;13.450;2022-08-04T18:44:36;16.20;;;12.27;;
50555;SDS011;36508;52.512;13.450;2022-08-04T18:47:02;26.17;;;12.07;;
50555;SDS011;36508;52.512;13.450;2022-08-04T18:49:29;15.90;;;11.23;;
50555;SDS011;36508;52.512;13.450;2022-08-04T18:51:55;24.80;;;11.80;;
50555;SDS011;36508;52.512;13.450;2022-08-04T18:54:22;34.17;;;12.87;;
50555;SDS011;36508;52.512;13.450;2022-08-04T18:56:49;16.03;;;12.30;;
50555;SDS011;36508;52.512;13.450;2022-08-04T18:59:17;19.07;;;11.77;;
50555;SDS011;36508;52.512;13.450;2022-08-04T19:01:43;30.30;;;12.53;;
50555;SDS011;36508;52.512;13.450;2022-08-04T19:04:12;26.80;;;13.97;;
50555;SDS011;36508;52.512;13.450;2022-08-04T19:06:40;87.70;;;79.83;;
50555;SDS011;36508;52.512;13.450;2022-08-04T19:09:06;34.10;;;20.87;;
50555;SDS011;36508;52.512;13.450;2022-08-04T19:11:32;41.80;;;16.23;;
50555;SDS011;36508;52.512;13.450;2022-08-04T19:13:59;48.43;;;16.57;;
50555;SDS011;36508;52.512;13.450;2022-08-04T19:19:32;19.73;;;13.00;;
50555;SDS011;36508;52.512;13.450;2022-08-04T19:21:57;24.67;;;13.90;;